createdAt,value
2023-03-27T00:01:13.309Z,73.42
2023-03-27T00:03:41.395Z,74.37
2023-03-27T00:06:12.411Z,73.79
2023-03-27T00:08:39.696Z,74.84
2023-03-27T00:11:08.277Z,74.96
2023-03-27T00:13:36.784Z,77.02
2023-03-27T00:16:17.193Z,76.74
2023-03-27T00:18:45.185Z,78.16
2023-03-27T00:21:12.833Z,78.45
2023-03-27T00:23:40.705Z,79.06
2023-03-27T00:26:08.280Z,80.35
2023-03-27T00:28:36.448Z,80.30
2023-03-27T00:31:04.151Z,80.89
2023-03-27T00:33:31.434Z,80.77
2023-03-27T00:35:59.075Z,81.13
2023-03-27T00:38:26.337Z,80.55
2023-03-27T00:40:55.605Z,81.25
2023-03-27T00:43:34.030Z,82.55
2023-03-27T00:46:04.693Z,82.16
2023-03-27T00:48:35.684Z,82.62
2023-03-27T00:51:05.883Z,83.11
2023-03-27T00:53:33.961Z,82.60
2023-03-27T00:56:05.416Z,82.81
2023-03-27T00:58:39.586Z,83.42
2023-03-27T01:01:10.087Z,82.34
2023-03-27T01:03:42.287Z,81.87
2023-03-27T01:06:14.062Z,83.13
2023-03-27T01:08:44.033Z,84.82
2023-03-27T01:11:48.925Z,84.72
2023-03-27T01:14:37.508Z,85.10
2023-03-27T01:17:32.618Z,85.15
2023-03-27T01:20:14.038Z,85.25
2023-03-27T01:22:44.761Z,85.37
2023-03-27T01:25:42.127Z,86.86
2023-03-27T01:28:52.178Z,86.53
2023-03-27T01:31:33.617Z,86.68
2023-03-27T01:34:01.114Z,86.42
2023-03-27T01:37:17.064Z,87.03
2023-03-27T01:39:44.852Z,86.83
2023-03-27T01:42:32.837Z,86.63
2023-03-27T01:45:14.977Z,88.82
2023-03-27T01:48:04.182Z,89.72
2023-03-27T01:50:54.570Z,90.68
2023-03-27T01:53:35.010Z,92.22
2023-03-27T01:56:26.459Z,93.88
2023-03-27T01:59:04.132Z,94.51
2023-03-27T02:01:37.855Z,95.35
2023-03-27T02:04:09.542Z,94.96
2023-03-27T02:06:43.822Z,94.90
2023-03-27T02:09:33.765Z,94.03
2023-03-27T02:12:07.702Z,94.76
2023-03-27T02:14:42.370Z,94.23
2023-03-27T02:17:14.443Z,94.90
2023-03-27T02:19:58.401Z,95.22
2023-03-27T02:22:38.382Z,95.28
2023-03-27T02:25:27.218Z,94.33
2023-03-27T02:28:03.556Z,95.66
2023-03-27T02:30:46.542Z,96.09
2023-03-27T02:33:56.256Z,95.75
2023-03-27T02:36:43.494Z,97.65
2023-03-27T02:39:54.020Z,98.32
2023-03-27T02:42:31.692Z,98.34
2023-03-27T02:45:38.598Z,99.08
2023-03-27T02:48:10.144Z,100.00
2023-03-27T02:50:44.124Z,100.00
2023-03-27T02:53:16.786Z,98.60
2023-03-27T02:55:46.268Z,97.88
2023-03-27T02:58:19.911Z,97.26
2023-03-27T03:00:59.506Z,96.92
2023-03-27T03:03:36.185Z,96.38
2023-03-27T03:06:30.248Z,100.00
2023-03-27T03:09:07.195Z,100.00
2023-03-27T03:11:37.453Z,100.00
2023-03-27T03:14:05.427Z,98.46
2023-03-27T03:16:34.436Z,99.21
2023-03-27T03:19:03.064Z,98.75
2023-03-27T03:21:32.092Z,97.79
2023-03-27T03:24:00.140Z,98.04
2023-03-27T03:26:28.240Z,99.26
2023-03-27T03:29:00.964Z,99.21
2023-03-27T03:31:43.398Z,100.00
2023-03-27T03:34:16.905Z,100.00
2023-03-27T03:36:49.916Z,100.00
2023-03-27T03:39:22.966Z,100.00
2023-03-27T03:41:51.154Z,99.92
2023-03-27T03:44:19.275Z,99.07
2023-03-27T03:46:46.935Z,99.90
2023-03-27T03:49:20.434Z,99.53
2023-03-27T03:51:48.051Z,99.69
2023-03-27T03:54:32.933Z,99.27
2023-03-27T03:57:00.504Z,99.34
2023-03-27T03:59:28.404Z,99.29
2023-03-27T04:02:28.375Z,99.51
2023-03-27T04:05:00.968Z,99.87
2023-03-27T04:07:36.551Z,99.29
2023-03-27T04:10:22.133Z,99.31
2023-03-27T04:12:50.246Z,98.84
2023-03-27T04:15:37.730Z,98.06
2023-03-27T04:18:24.737Z,97.97
2023-03-27T04:20:54.527Z,98.72
2023-03-27T04:23:32.188Z,99.10
2023-03-27T04:26:02.117Z,99.66
2023-03-27T04:28:51.773Z,100.00
2023-03-27T04:31:39.242Z,100.00
2023-03-27T04:34:40.618Z,100.00
2023-03-27T04:37:26.545Z,100.00
2023-03-27T04:40:25.596Z,100.00
2023-03-27T04:42:55.995Z,100.00
2023-03-27T04:45:25.772Z,100.00
2023-03-27T04:47:54.612Z,100.00
2023-03-27T04:50:22.892Z,100.00
2023-03-27T04:52:51.856Z,100.00
2023-03-27T04:55:23.051Z,100.00
2023-03-27T04:57:50.501Z,100.00
2023-03-27T05:00:20.073Z,100.00
2023-03-27T05:02:47.937Z,100.00
2023-03-27T05:05:32.401Z,100.00
2023-03-27T05:08:05.187Z,100.00
2023-03-27T05:10:32.765Z,99.42
2023-03-27T05:13:01.523Z,96.10
2023-03-27T05:15:32.421Z,94.77
2023-03-27T05:18:02.125Z,92.49
2023-03-27T05:20:31.361Z,91.28
2023-03-27T05:23:05.508Z,91.05
2023-03-27T05:25:33.572Z,90.37
2023-03-27T05:28:03.915Z,89.71
2023-03-27T05:30:34.633Z,87.31
2023-03-27T05:33:20.705Z,89.57
2023-03-27T05:35:50.301Z,89.53
2023-03-27T05:38:19.286Z,89.88
2023-03-27T05:40:57.027Z,88.70
2023-03-27T05:43:25.009Z,88.24
2023-03-27T05:45:52.926Z,88.41
2023-03-27T05:48:20.265Z,88.96
2023-03-27T05:50:47.774Z,88.41
2023-03-27T05:53:20.601Z,89.58
2023-03-27T05:56:12.271Z,86.70
2023-03-27T05:58:51.167Z,87.29
2023-03-27T06:01:18.950Z,85.85
2023-03-27T06:03:46.806Z,85.92
2023-03-27T06:06:18.065Z,85.63
2023-03-27T06:08:46.262Z,85.62
2023-03-27T06:11:15.401Z,84.51
2023-03-27T06:13:46.725Z,86.30
2023-03-27T06:16:21.521Z,86.50
2023-03-27T06:19:09.451Z,86.14
2023-03-27T06:21:44.750Z,86.50
2023-03-27T06:24:12.312Z,87.02
2023-03-27T06:26:41.222Z,86.02
2023-03-27T06:29:09.419Z,85.95
2023-03-27T06:31:45.347Z,86.59
2023-03-27T06:34:32.334Z,84.77
2023-03-27T06:37:05.916Z,84.76
2023-03-27T06:39:40.212Z,84.56
2023-03-27T06:42:08.431Z,83.41
2023-03-27T06:44:45.059Z,83.16
2023-03-27T06:47:48.109Z,83.91
2023-03-27T06:50:50.092Z,84.77
2023-03-27T06:55:49.991Z,83.71
2023-03-27T06:58:19.273Z,85.56
2023-03-27T07:00:47.294Z,85.63
2023-03-27T07:03:19.466Z,83.77
2023-03-27T07:05:58.963Z,86.28
2023-03-27T07:08:31.748Z,87.12
2023-03-27T07:13:41.266Z,93.01
2023-03-27T07:16:14.970Z,95.95
2023-03-27T07:18:43.000Z,94.41
2023-03-27T07:21:10.661Z,94.21
2023-03-27T07:23:38.569Z,93.02
2023-03-27T07:26:09.226Z,92.90
2023-03-27T07:29:03.985Z,95.97
2023-03-27T07:31:49.002Z,93.60
2023-03-27T07:34:19.783Z,92.14
2023-03-27T07:37:09.963Z,87.54
2023-03-27T07:39:41.947Z,87.69
2023-03-27T07:42:09.358Z,87.98
2023-03-27T07:44:51.611Z,85.79
2023-03-27T07:47:18.966Z,87.30
2023-03-27T07:49:46.739Z,91.86
2023-03-27T07:52:17.464Z,94.87
2023-03-27T07:54:57.043Z,98.82
2023-03-27T07:57:31.609Z,97.73
2023-03-27T08:00:11.986Z,94.68
2023-03-27T08:02:52.205Z,91.64
2023-03-27T08:05:20.330Z,90.06
2023-03-27T08:08:00.302Z,88.49
2023-03-27T08:10:42.593Z,86.45
2023-03-27T08:13:12.763Z,86.53
2023-03-27T08:15:40.608Z,90.88
2023-03-27T08:18:19.731Z,88.43
2023-03-27T08:20:48.476Z,90.61
2023-03-27T08:23:16.421Z,89.28
2023-03-27T08:26:14.013Z,91.26
2023-03-27T08:28:54.146Z,93.08
2023-03-27T08:31:25.752Z,91.86
2023-03-27T08:33:54.961Z,92.75
2023-03-27T08:36:27.280Z,92.55
2023-03-27T08:38:55.506Z,90.84
2023-03-27T08:41:41.722Z,89.83
2023-03-27T08:44:32.213Z,86.27
2023-03-27T08:47:10.740Z,83.52
2023-03-27T08:49:52.816Z,82.06
2023-03-27T08:52:27.276Z,79.21
2023-03-27T08:55:26.099Z,77.59
2023-03-27T08:58:05.837Z,76.06
2023-03-27T09:00:40.575Z,74.97
2023-03-27T09:03:35.892Z,75.22
2023-03-27T09:06:20.165Z,73.60
2023-03-27T09:09:07.171Z,73.57
2023-03-27T09:11:44.241Z,72.23
2023-03-27T09:14:48.515Z,72.15
2023-03-27T09:17:23.689Z,70.17
2023-03-27T09:20:17.798Z,69.47
2023-03-27T09:22:53.959Z,66.65
2023-03-27T09:25:51.671Z,64.22
2023-03-27T09:28:59.437Z,64.49
2023-03-27T09:31:35.134Z,59.95
2023-03-27T09:34:12.014Z,52.95
2023-03-27T09:36:39.753Z,46.04
2023-03-27T09:39:15.727Z,46.41
2023-03-27T09:41:51.207Z,46.40
2023-03-27T09:44:27.881Z,46.96
2023-03-27T09:47:19.751Z,49.19
2023-03-27T09:49:53.094Z,52.88
2023-03-27T09:52:44.641Z,53.15
2023-03-27T09:55:32.019Z,50.92
2023-03-27T09:58:15.970Z,47.84
2023-03-27T10:00:43.634Z,51.63
2023-03-27T10:03:17.640Z,51.75
2023-03-27T10:05:48.102Z,56.48
2023-03-27T10:08:30.753Z,56.35
2023-03-27T10:11:22.634Z,55.26
2023-03-27T10:13:55.237Z,55.10
2023-03-27T10:16:27.969Z,52.36
2023-03-27T10:19:01.288Z,51.54
2023-03-27T10:21:39.381Z,50.53
2023-03-27T10:24:19.576Z,46.45
2023-03-27T10:27:12.273Z,41.74
2023-03-27T10:29:58.892Z,38.66
2023-03-27T10:32:47.253Z,37.43
2023-03-27T10:35:40.581Z,40.90
2023-03-27T10:38:22.625Z,44.09
2023-03-27T10:41:09.732Z,47.98
2023-03-27T10:43:46.270Z,49.57
2023-03-27T10:46:18.352Z,51.77
2023-03-27T10:49:04.140Z,55.56
2023-03-27T10:51:46.728Z,56.01
2023-03-27T10:54:34.327Z,55.11
2023-03-27T10:57:23.691Z,52.45
2023-03-27T11:00:11.812Z,49.40
2023-03-27T11:03:12.063Z,49.48
2023-03-27T11:05:46.742Z,47.06
2023-03-27T11:08:54.256Z,45.29
2023-03-27T11:11:42.766Z,46.15
2023-03-27T11:14:19.149Z,50.51
2023-03-27T11:17:00.677Z,51.38
2023-03-27T11:20:00.985Z,54.80
2023-03-27T11:22:42.222Z,56.00
2023-03-27T11:25:39.627Z,56.64
2023-03-27T11:28:24.290Z,56.34
2023-03-27T11:31:12.863Z,54.66
2023-03-27T11:34:00.187Z,53.41
2023-03-27T11:36:34.431Z,53.33
2023-03-27T11:39:45.373Z,50.53
2023-03-27T11:42:23.126Z,50.54
2023-03-27T11:44:51.335Z,48.73
2023-03-27T11:47:36.957Z,49.26
2023-03-27T11:50:15.771Z,47.24
2023-03-27T11:52:47.116Z,47.03
2023-03-27T11:55:56.046Z,48.16
2023-03-27T11:58:30.833Z,48.20
2023-03-27T12:01:12.771Z,48.08
2023-03-27T12:03:57.901Z,48.72
2023-03-27T12:09:39.029Z,50.80
2023-03-27T12:13:18.662Z,48.21
2023-03-27T12:16:17.072Z,48.32
2023-03-27T12:19:39.168Z,48.94
2023-03-27T12:22:44.509Z,49.20
2023-03-27T12:26:07.646Z,50.05
2023-03-27T12:29:23.708Z,49.48
2023-03-27T12:32:31.536Z,46.57
2023-03-27T12:35:07.764Z,45.99
2023-03-27T12:37:49.417Z,44.13
2023-03-27T12:40:51.240Z,44.94
2023-03-27T12:43:21.618Z,44.87
2023-03-27T12:46:14.511Z,46.88
2023-03-27T12:49:06.279Z,47.32
2023-03-27T12:51:43.704Z,46.17
2023-03-27T12:54:27.090Z,45.60
2023-03-27T12:57:21.311Z,45.09
2023-03-27T12:59:53.806Z,43.85
2023-03-27T13:02:44.273Z,44.41
2023-03-27T13:05:30.457Z,44.54
2023-03-27T13:08:21.514Z,43.85
2023-03-27T13:11:23.725Z,42.96
2023-03-27T13:14:22.261Z,42.05
2023-03-27T13:17:31.700Z,43.84
2023-03-27T13:20:11.001Z,44.03
2023-03-27T13:23:19.558Z,43.43
2023-03-27T13:25:47.330Z,44.23
2023-03-27T13:28:34.682Z,43.98
2023-03-27T13:31:46.380Z,44.65
2023-03-27T13:34:40.799Z,45.19
2023-03-27T13:37:14.347Z,45.42
2023-03-27T13:40:10.426Z,44.36
2023-03-27T13:42:44.772Z,44.28
2023-03-27T13:45:28.403Z,43.30
2023-03-27T13:48:45.316Z,43.01
2023-03-27T13:51:21.524Z,44.86
2023-03-27T13:54:26.698Z,44.58
2023-03-27T13:57:17.317Z,45.66
2023-03-27T14:00:32.702Z,44.26
2023-03-27T14:03:35.908Z,44.96
2023-03-27T14:06:09.591Z,44.55
2023-03-27T14:09:08.030Z,42.77
2023-03-27T14:12:25.649Z,42.73
2023-03-27T14:15:23.486Z,43.20
2023-03-27T14:18:34.473Z,41.50
2023-03-27T14:21:10.466Z,41.23
2023-03-27T14:23:50.628Z,41.40
2023-03-27T14:26:30.810Z,41.45
2023-03-27T14:29:01.063Z,40.70
2023-03-27T14:31:49.691Z,40.63
2023-03-27T14:34:40.137Z,41.48
2023-03-27T14:37:36.355Z,41.35
2023-03-27T14:40:35.454Z,41.44
2023-03-27T14:43:07.243Z,42.22
2023-03-27T14:45:40.962Z,41.96
2023-03-27T14:48:30.325Z,41.62
2023-03-27T14:51:02.052Z,41.27
2023-03-27T14:53:37.116Z,41.48
2023-03-27T14:56:41.890Z,41.94
2023-03-27T14:59:35.145Z,41.75
2023-03-27T15:02:34.887Z,41.69
2023-03-27T15:05:12.200Z,42.53
2023-03-27T15:07:43.188Z,41.81
2023-03-27T15:10:44.170Z,41.54
2023-03-27T15:13:39.363Z,42.17
2023-03-27T15:16:24.894Z,41.33
2023-03-27T15:19:12.280Z,42.08
2023-03-27T15:22:24.954Z,43.41
2023-03-27T15:25:17.847Z,45.30
2023-03-27T15:27:59.054Z,45.90
2023-03-27T15:30:37.854Z,46.94
2023-03-27T15:33:08.845Z,47.33
2023-03-27T15:35:41.892Z,47.94
2023-03-27T15:38:14.233Z,48.29
2023-03-27T15:40:44.070Z,48.43
2023-03-27T15:43:14.307Z,48.12
2023-03-27T15:45:57.182Z,48.58
2023-03-27T15:48:30.127Z,48.71
2023-03-27T15:51:05.730Z,49.05
2023-03-27T15:53:43.395Z,49.03
2023-03-27T15:56:13.885Z,48.83
2023-03-27T15:58:48.169Z,49.43
2023-03-27T16:01:20.340Z,48.99
2023-03-27T16:03:48.533Z,48.96
2023-03-27T16:06:26.787Z,48.94
2023-03-27T16:08:55.051Z,47.99
2023-03-27T16:11:56.047Z,47.75
2023-03-27T16:14:30.968Z,47.88
2023-03-27T16:17:20.526Z,48.79
2023-03-27T16:20:21.369Z,48.83
2023-03-27T16:22:50.155Z,47.44
2023-03-27T16:25:17.567Z,47.89
2023-03-27T16:27:51.354Z,48.60
2023-03-27T16:30:32.134Z,49.07
2023-03-27T16:33:00.184Z,49.52
2023-03-27T16:35:28.790Z,49.47
2023-03-27T16:37:56.662Z,49.48
2023-03-27T16:40:24.465Z,48.74
2023-03-27T16:42:51.958Z,49.05
2023-03-27T16:45:19.255Z,48.24
2023-03-27T16:47:49.080Z,47.93
2023-03-27T16:50:21.967Z,47.85
2023-03-27T16:52:49.597Z,48.08
2023-03-27T16:55:17.554Z,48.91
2023-03-27T16:57:46.759Z,49.21
2023-03-27T17:00:15.764Z,49.68
2023-03-27T17:02:44.483Z,49.87
2023-03-27T17:05:12.093Z,49.69
2023-03-27T17:07:41.916Z,49.89
2023-03-27T17:10:10.467Z,50.13
2023-03-27T17:12:38.465Z,50.76
2023-03-27T17:15:06.667Z,50.55
2023-03-27T17:17:34.155Z,51.48
2023-03-27T17:20:01.754Z,52.37
2023-03-27T17:22:30.162Z,53.02
2023-03-27T17:25:01.248Z,53.77
2023-03-27T17:27:29.171Z,54.14
2023-03-27T17:29:56.648Z,54.84
2023-03-27T17:32:26.821Z,54.36
2023-03-27T17:34:55.056Z,55.99
2023-03-27T17:37:23.340Z,55.10
2023-03-27T17:39:50.575Z,56.19
2023-03-27T17:42:18.217Z,56.02
2023-03-27T17:44:45.719Z,56.45
2023-03-27T17:47:13.932Z,56.49
2023-03-27T17:49:43.358Z,56.61
2023-03-27T17:52:12.291Z,57.37
2023-03-27T17:54:39.918Z,56.81
2023-03-27T17:57:07.576Z,57.65
2023-03-27T17:59:36.551Z,58.83
2023-03-27T18:02:04.585Z,58.46
2023-03-27T18:04:33.191Z,59.22
2023-03-27T18:07:00.731Z,58.86
2023-03-27T18:09:27.944Z,58.55
2023-03-27T18:11:55.706Z,58.74
2023-03-27T18:14:22.935Z,58.20
2023-03-27T18:16:54.194Z,59.16
2023-03-27T18:19:26.713Z,59.45
2023-03-27T18:21:55.374Z,59.60
2023-03-27T18:24:22.619Z,58.97
2023-03-27T18:26:51.721Z,58.63
2023-03-27T18:29:21.253Z,58.92
2023-03-27T18:31:49.032Z,60.15
2023-03-27T18:34:16.717Z,59.55
2023-03-27T18:36:50.693Z,60.19
2023-03-27T18:39:19.171Z,60.54
2023-03-27T18:41:46.870Z,59.16
2023-03-27T18:44:14.678Z,59.74
2023-03-27T18:46:42.618Z,59.79
2023-03-27T18:49:21.459Z,61.32
2023-03-27T18:51:49.734Z,60.73
2023-03-27T18:54:17.407Z,61.70
2023-03-27T18:56:45.144Z,62.79
2023-03-27T18:59:12.473Z,62.82
2023-03-27T19:01:40.149Z,62.71
2023-03-27T19:04:07.624Z,63.68
2023-03-27T19:06:36.630Z,62.84
2023-03-27T19:09:04.039Z,62.97
2023-03-27T19:11:31.645Z,62.00
2023-03-27T19:14:17.526Z,62.28
2023-03-27T19:17:04.949Z,62.41
2023-03-27T19:19:55.331Z,61.93
2023-03-27T19:22:41.270Z,62.35
2023-03-27T19:25:27.762Z,62.69
2023-03-27T19:27:55.947Z,62.25
2023-03-27T19:30:23.477Z,63.00
2023-03-27T19:32:52.408Z,60.49
2023-03-27T19:35:20.677Z,60.60
2023-03-27T19:37:48.234Z,60.42
2023-03-27T19:40:16.000Z,59.45
2023-03-27T19:42:43.562Z,58.65
2023-03-27T19:45:11.453Z,58.96
2023-03-27T19:47:39.142Z,58.43
2023-03-27T19:50:08.558Z,58.93
2023-03-27T19:53:05.324Z,59.48
2023-03-27T19:55:35.956Z,59.22
2023-03-27T19:58:03.476Z,59.88
2023-03-27T20:00:32.222Z,59.01
2023-03-27T20:02:59.952Z,59.34
2023-03-27T20:05:29.532Z,59.37
2023-03-27T20:07:57.423Z,59.33
2023-03-27T20:10:27.116Z,60.55
2023-03-27T20:12:54.682Z,61.59
2023-03-27T20:15:22.690Z,60.89
2023-03-27T20:17:50.427Z,60.00
2023-03-27T20:20:18.155Z,60.41
2023-03-27T20:22:57.160Z,61.92
2023-03-27T20:25:25.529Z,61.27
2023-03-27T20:27:53.169Z,62.32
2023-03-27T20:30:20.452Z,63.13
2023-03-27T20:32:50.199Z,62.83
2023-03-27T20:35:24.199Z,60.92
2023-03-27T20:37:57.781Z,61.69
2023-03-27T20:40:27.919Z,61.96
2023-03-27T20:43:03.429Z,62.06
2023-03-27T20:45:31.550Z,61.16
2023-03-27T20:48:05.428Z,61.41
2023-03-27T20:50:35.298Z,62.37
2023-03-27T20:53:04.786Z,62.00
2023-03-27T20:55:34.672Z,62.26
2023-03-27T20:58:06.615Z,61.78
2023-03-27T21:00:34.963Z,61.21
2023-03-27T21:03:02.769Z,61.15
2023-03-27T21:05:32.693Z,60.75
2023-03-27T21:08:00.296Z,60.76
2023-03-27T21:10:27.565Z,60.46
2023-03-27T21:12:56.950Z,60.58
2023-03-27T21:15:24.486Z,61.08
2023-03-27T21:17:52.131Z,61.19
2023-03-27T21:20:19.394Z,61.66
2023-03-27T21:22:52.791Z,62.13
2023-03-27T21:25:21.697Z,64.38
2023-03-27T21:27:54.408Z,65.13
2023-03-27T21:30:22.206Z,64.61
2023-03-27T21:32:50.837Z,64.20
2023-03-27T21:35:18.676Z,65.24
2023-03-27T21:37:46.222Z,65.37
2023-03-27T21:40:13.528Z,65.17
2023-03-27T21:42:41.183Z,66.10
2023-03-27T21:45:08.895Z,66.65
2023-03-27T21:47:47.231Z,65.42
2023-03-27T21:50:15.466Z,65.80
2023-03-27T21:52:43.120Z,65.10
2023-03-27T21:55:10.447Z,65.49
2023-03-27T21:57:38.048Z,64.19
2023-03-27T22:00:06.875Z,63.76
2023-03-27T22:02:41.448Z,63.43
2023-03-27T22:05:09.038Z,62.72
2023-03-27T22:07:36.738Z,62.57
2023-03-27T22:10:06.482Z,62.42
2023-03-27T22:12:36.086Z,62.39
2023-03-27T22:15:04.895Z,62.27
2023-03-27T22:17:32.787Z,62.38
2023-03-27T22:20:00.256Z,62.96
2023-03-27T22:22:27.836Z,63.69
2023-03-27T22:24:55.061Z,63.80
2023-03-27T22:27:22.788Z,63.47
2023-03-27T22:29:50.026Z,64.92
2023-03-27T22:32:17.591Z,64.37
2023-03-27T22:34:44.943Z,63.25
2023-03-27T22:37:12.492Z,64.07
2023-03-27T22:39:39.726Z,65.25
2023-03-27T22:42:07.300Z,64.92
2023-03-27T22:44:34.693Z,64.50
2023-03-27T22:47:02.272Z,64.47
2023-03-27T22:49:29.517Z,64.05
2023-03-27T22:51:57.070Z,62.96
2023-03-27T22:54:24.442Z,62.86
2023-03-27T22:56:55.158Z,62.20
2023-03-27T22:59:22.596Z,61.35
2023-03-27T23:01:50.378Z,61.33
2023-03-27T23:04:17.686Z,61.31
2023-03-27T23:06:45.385Z,61.19
2023-03-27T23:09:12.652Z,61.56
2023-03-27T23:11:40.472Z,61.67
2023-03-27T23:14:07.709Z,62.14
2023-03-27T23:16:35.591Z,64.55
2023-03-27T23:19:03.333Z,67.13
2023-03-27T23:21:30.843Z,68.86
2023-03-27T23:23:58.099Z,71.93
2023-03-27T23:26:27.416Z,74.18
2023-03-27T23:28:54.692Z,75.57
2023-03-27T23:31:22.782Z,76.06
2023-03-27T23:33:51.273Z,78.53
2023-03-27T23:36:22.116Z,78.24
2023-03-27T23:38:51.615Z,80.01
2023-03-27T23:41:20.333Z,83.28
2023-03-27T23:43:48.157Z,85.92
2023-03-27T23:46:16.299Z,83.67
2023-03-27T23:48:44.809Z,82.88
2023-03-27T23:51:14.078Z,82.45
2023-03-27T23:53:41.622Z,82.55
2023-03-27T23:56:09.661Z,83.75
2023-03-27T23:58:37.539Z,84.29
